createdAt,value
2022-11-01T00:02:02.645Z,14.22
2022-11-01T00:04:30.226Z,14.16
2022-11-01T00:06:57.607Z,14.18
2022-11-01T00:09:24.945Z,14.29
2022-11-01T00:11:52.528Z,14.45
2022-11-01T00:14:19.888Z,13.83
2022-11-01T00:16:47.198Z,14.24
2022-11-01T00:19:14.883Z,14.18
2022-11-01T00:21:42.196Z,14.56
2022-11-01T00:24:09.572Z,14.45
2022-11-01T00:26:37.265Z,14.46
2022-11-01T00:29:04.603Z,14.20
2022-11-01T00:31:31.978Z,14.11
2022-11-01T00:34:03.668Z,14.47
2022-11-01T00:36:31.794Z,13.64
2022-11-01T00:38:59.130Z,13.47
2022-11-01T00:41:26.750Z,13.13
2022-11-01T00:43:54.175Z,14.01
2022-11-01T00:46:21.504Z,14.38
2022-11-01T00:48:49.387Z,13.36
2022-11-01T00:51:16.725Z,13.99
2022-11-01T00:53:44.040Z,14.39
2022-11-01T00:56:11.653Z,13.60
2022-11-01T00:58:38.948Z,13.95
2022-11-01T01:01:06.414Z,13.22
2022-11-01T01:03:34.116Z,13.25
2022-11-01T01:06:01.453Z,13.22
2022-11-01T01:08:28.933Z,12.81
2022-11-01T01:10:56.506Z,13.80
2022-11-01T01:13:24.040Z,13.82
2022-11-01T01:15:51.352Z,13.54
2022-11-01T01:18:18.948Z,12.99
2022-11-01T01:20:46.257Z,13.63
2022-11-01T01:23:13.613Z,13.39
2022-11-01T01:25:41.727Z,13.04
2022-11-01T01:28:09.382Z,13.23
2022-11-01T01:30:39.834Z,13.70
2022-11-01T01:33:07.480Z,14.02
2022-11-01T01:35:34.847Z,13.70
2022-11-01T01:38:02.411Z,13.14
2022-11-01T01:40:30.372Z,13.36
2022-11-01T01:42:57.695Z,13.58
2022-11-01T01:45:33.069Z,13.30
2022-11-01T01:48:22.317Z,13.40
2022-11-01T01:51:02.535Z,13.36
2022-11-01T01:53:31.791Z,13.61
2022-11-01T01:56:03.645Z,13.37
2022-11-01T01:58:45.190Z,12.79
2022-11-01T02:01:12.644Z,12.77
2022-11-01T02:03:40.307Z,12.67
2022-11-01T02:06:15.814Z,13.42
2022-11-01T02:08:47.982Z,13.24
2022-11-01T02:11:16.843Z,13.53
2022-11-01T02:13:44.209Z,13.68
2022-11-01T02:16:26.369Z,12.83
2022-11-01T02:19:06.114Z,12.01
2022-11-01T02:21:54.639Z,13.09
2022-11-01T02:24:49.410Z,13.31
2022-11-01T02:27:40.384Z,13.63
2022-11-01T02:30:13.695Z,12.81
2022-11-01T02:33:06.692Z,13.30
2022-11-01T02:35:46.585Z,12.62
2022-11-01T02:38:27.413Z,11.93
2022-11-01T02:41:15.761Z,12.16
2022-11-01T02:43:58.212Z,12.81
2022-11-01T02:46:51.924Z,13.05
2022-11-01T02:49:19.294Z,13.31
2022-11-01T02:51:46.902Z,13.29
2022-11-01T02:54:27.883Z,13.71
2022-11-01T02:56:55.471Z,13.46
2022-11-01T02:59:27.970Z,13.35
2022-11-01T03:02:08.557Z,13.68
2022-11-01T03:04:35.949Z,13.96
2022-11-01T03:07:05.506Z,14.02
2022-11-01T03:09:33.225Z,14.17
2022-11-01T03:12:02.533Z,13.59
2022-11-01T03:14:29.970Z,13.32
2022-11-01T03:17:02.984Z,13.72
2022-11-01T03:19:36.560Z,14.02
2022-11-01T03:22:24.732Z,14.25
2022-11-01T03:24:59.960Z,14.29
2022-11-01T03:27:33.048Z,13.28
2022-11-01T03:30:03.518Z,13.50
2022-11-01T03:32:34.436Z,13.68
2022-11-01T03:35:02.055Z,13.70
2022-11-01T03:37:29.384Z,13.99
2022-11-01T03:39:56.750Z,14.08
2022-11-01T03:42:24.338Z,14.32
2022-11-01T03:44:54.383Z,14.24
2022-11-01T03:47:21.720Z,14.02
2022-11-01T03:50:12.815Z,13.78
2022-11-01T03:52:40.256Z,14.22
2022-11-01T03:55:20.669Z,14.19
2022-11-01T03:57:52.826Z,14.14
2022-11-01T04:00:25.052Z,14.35
2022-11-01T04:02:53.707Z,14.42
2022-11-01T04:05:21.744Z,14.19
2022-11-01T04:07:49.375Z,13.55
2022-11-01T04:10:17.233Z,13.11
2022-11-01T04:12:45.233Z,12.72
2022-11-01T04:15:31.261Z,13.59
2022-11-01T04:18:36.143Z,13.89
2022-11-01T04:21:07.894Z,13.77
2022-11-01T04:23:35.566Z,13.72
2022-11-01T04:26:03.082Z,13.89
2022-11-01T04:28:30.416Z,14.07
2022-11-01T04:30:57.990Z,14.06
2022-11-01T04:33:25.360Z,13.89
2022-11-01T04:35:52.720Z,13.80
2022-11-01T04:38:20.279Z,13.75
2022-11-01T04:40:47.653Z,14.33
2022-11-01T04:43:15.348Z,14.19
2022-11-01T04:45:42.951Z,14.08
2022-11-01T04:48:14.006Z,14.42
2022-11-01T04:50:42.062Z,14.31
2022-11-01T04:53:10.114Z,14.19
2022-11-01T04:55:37.531Z,12.91
2022-11-01T04:58:06.631Z,13.46
2022-11-01T05:00:34.387Z,13.44
2022-11-01T05:03:08.217Z,13.04
2022-11-01T05:05:36.307Z,13.25
2022-11-01T05:08:08.662Z,13.00
2022-11-01T05:10:37.770Z,13.60
2022-11-01T05:13:05.816Z,14.08
2022-11-01T05:15:33.745Z,12.92
2022-11-01T05:18:02.941Z,13.14
2022-11-01T05:20:33.144Z,13.30
2022-11-01T05:23:03.983Z,13.47
2022-11-01T05:25:34.019Z,13.16
2022-11-01T05:28:07.355Z,13.26
2022-11-01T05:30:35.224Z,12.91
2022-11-01T05:33:02.793Z,13.05
2022-11-01T05:35:30.264Z,13.45
2022-11-01T05:37:57.869Z,13.20
2022-11-01T05:40:25.234Z,13.45
2022-11-01T05:42:52.755Z,12.99
2022-11-01T05:45:20.486Z,13.00
2022-11-01T05:47:47.855Z,13.35
2022-11-01T05:50:15.564Z,13.56
2022-11-01T05:52:43.688Z,13.52
2022-11-01T05:55:11.187Z,13.62
2022-11-01T05:57:38.630Z,13.14
2022-11-01T06:00:06.823Z,13.49
2022-11-01T06:02:39.309Z,13.38
2022-11-01T06:05:07.096Z,13.54
2022-11-01T06:07:35.968Z,13.73
2022-11-01T06:10:04.422Z,13.41
2022-11-01T06:12:32.069Z,13.63
2022-11-01T06:14:59.396Z,13.45
2022-11-01T06:17:26.814Z,14.02
2022-11-01T06:19:54.409Z,13.70
2022-11-01T06:22:21.743Z,13.45
2022-11-01T06:24:49.064Z,13.73
2022-11-01T06:27:16.835Z,13.86
2022-11-01T06:29:44.178Z,13.72
2022-11-01T06:32:11.492Z,13.75
2022-11-01T06:34:42.342Z,13.58
2022-11-01T06:37:12.233Z,13.47
2022-11-01T06:39:39.813Z,13.64
2022-11-01T06:42:07.135Z,13.81
2022-11-01T06:44:34.465Z,13.50
2022-11-01T06:47:02.083Z,13.76
2022-11-01T06:49:30.493Z,14.12
2022-11-01T06:51:57.799Z,13.92
2022-11-01T06:54:25.795Z,13.89
2022-11-01T06:56:53.154Z,13.40
2022-11-01T06:59:20.508Z,13.76
2022-11-01T07:01:48.213Z,13.88
2022-11-01T07:04:15.699Z,14.02
2022-11-01T07:06:43.051Z,13.98
2022-11-01T07:09:10.944Z,14.18
2022-11-01T07:11:38.342Z,13.42
2022-11-01T07:14:05.811Z,13.69
2022-11-01T07:16:33.566Z,13.73
2022-11-01T07:19:00.891Z,13.59
2022-11-01T07:21:28.743Z,13.54
2022-11-01T07:23:56.357Z,13.46
2022-11-01T07:26:23.690Z,13.85
2022-11-01T07:28:50.991Z,13.72
2022-11-01T07:31:18.814Z,14.08
2022-11-01T07:33:46.150Z,14.08
2022-11-01T07:36:13.492Z,13.84
2022-11-01T07:38:41.105Z,14.00
2022-11-01T07:41:09.151Z,14.22
2022-11-01T07:43:36.763Z,14.54
2022-11-01T07:46:05.677Z,14.63
2022-11-01T07:48:33.547Z,14.39
2022-11-01T07:51:02.676Z,14.43
2022-11-01T07:53:30.327Z,14.11
2022-11-01T07:55:57.682Z,14.42
2022-11-01T07:58:25.014Z,14.40
2022-11-01T08:00:52.651Z,14.39
2022-11-01T08:03:20.329Z,14.60
2022-11-01T08:05:47.908Z,14.49
2022-11-01T08:08:15.461Z,14.39
2022-11-01T08:10:43.090Z,13.67
2022-11-01T08:13:17.474Z,13.88
2022-11-01T08:15:45.609Z,13.97
2022-11-01T08:18:13.055Z,13.16
2022-11-01T08:20:41.178Z,13.16
2022-11-01T08:23:08.858Z,13.44
2022-11-01T08:25:36.341Z,13.12
2022-11-01T08:28:07.746Z,13.36
2022-11-01T08:30:36.293Z,13.77
2022-11-01T08:33:04.185Z,14.09
2022-11-01T08:35:32.761Z,14.15
2022-11-01T08:38:00.398Z,14.40
2022-11-01T08:40:30.587Z,14.32
2022-11-01T08:42:57.995Z,14.22
2022-11-01T08:45:25.748Z,14.77
2022-11-01T08:48:03.618Z,14.88
2022-11-01T08:50:31.342Z,14.85
2022-11-01T08:52:58.849Z,14.41
2022-11-01T08:55:26.550Z,14.60
2022-11-01T08:57:54.184Z,14.57
2022-11-01T09:00:21.557Z,14.47
2022-11-01T09:02:48.875Z,14.36
2022-11-01T09:05:16.590Z,14.52
2022-11-01T09:07:43.928Z,14.03
2022-11-01T09:10:11.837Z,14.22
2022-11-01T09:15:07.859Z,14.65
2022-11-01T09:17:35.364Z,13.95
2022-11-01T09:20:04.580Z,13.98
2022-11-01T09:22:31.959Z,14.45
2022-11-01T09:24:59.310Z,14.04
2022-11-01T09:27:26.901Z,14.53
2022-11-01T09:29:54.329Z,13.80
2022-11-01T09:32:21.680Z,14.08
2022-11-01T09:34:49.275Z,13.79
2022-11-01T09:37:16.783Z,14.06
2022-11-01T09:39:44.107Z,13.71
2022-11-01T09:42:35.728Z,14.06
2022-11-01T09:45:06.098Z,14.29
2022-11-01T09:47:33.910Z,13.16
2022-11-01T09:50:01.060Z,13.93
2022-11-01T09:52:28.396Z,14.37
2022-11-01T09:54:55.962Z,14.71
2022-11-01T09:57:30.454Z,14.78
2022-11-01T10:00:04.274Z,14.06
2022-11-01T10:02:52.579Z,13.32
2022-11-01T10:05:29.307Z,13.72
2022-11-01T10:08:21.492Z,12.84
2022-11-01T10:11:15.061Z,14.07
2022-11-01T10:14:07.951Z,14.48
2022-11-01T10:16:37.111Z,14.58
2022-11-01T10:19:05.384Z,14.40
2022-11-01T10:21:42.511Z,14.80
2022-11-01T10:24:21.294Z,14.19
2022-11-01T10:26:50.344Z,13.04
2022-11-01T10:29:23.170Z,13.28
2022-11-01T10:31:51.829Z,13.47
2022-11-01T10:34:35.675Z,12.99
2022-11-01T10:37:22.182Z,14.32
2022-11-01T10:39:58.001Z,14.53
2022-11-01T10:42:29.071Z,14.66
2022-11-01T10:44:59.627Z,13.63
2022-11-01T10:47:28.054Z,14.38
2022-11-01T10:50:14.353Z,14.26
2022-11-01T10:52:52.016Z,14.75
2022-11-01T10:55:39.621Z,14.49
2022-11-01T10:58:24.760Z,13.68
2022-11-01T11:00:52.148Z,13.79
2022-11-01T11:03:23.277Z,14.46
2022-11-01T11:05:51.258Z,13.85
2022-11-01T11:08:19.896Z,14.04
2022-11-01T11:10:47.532Z,14.69
2022-11-01T11:13:16.915Z,14.97
2022-11-01T11:15:45.888Z,15.06
2022-11-01T11:18:22.848Z,14.93
2022-11-01T11:20:52.005Z,14.67
2022-11-01T11:23:21.702Z,14.91
2022-11-01T11:25:50.502Z,14.94
2022-11-01T11:28:22.155Z,14.33
2022-11-01T11:30:49.751Z,15.08
2022-11-01T11:33:17.439Z,14.85
2022-11-01T11:35:56.024Z,13.44
2022-11-01T11:38:43.842Z,12.73
2022-11-01T11:41:12.546Z,13.58
2022-11-01T11:43:41.977Z,13.57
2022-11-01T11:46:15.803Z,14.32
2022-11-01T11:48:53.146Z,13.69
2022-11-01T11:51:21.193Z,14.55
2022-11-01T11:54:07.553Z,15.10
2022-11-01T11:56:34.932Z,15.34
2022-11-01T11:59:08.532Z,15.21
2022-11-01T12:01:36.224Z,15.03
2022-11-01T12:04:12.796Z,15.31
2022-11-01T12:06:46.061Z,15.50
2022-11-01T12:09:34.092Z,15.38
2022-11-01T12:12:17.980Z,15.34
2022-11-01T12:14:45.630Z,15.46
2022-11-01T12:17:35.871Z,15.95
2022-11-01T12:20:16.564Z,15.35
2022-11-01T12:23:07.064Z,14.87
2022-11-01T12:25:35.660Z,14.41
2022-11-01T12:28:05.059Z,14.98
2022-11-01T12:30:33.627Z,15.43
2022-11-01T12:33:30.380Z,15.74
2022-11-01T12:35:57.725Z,16.06
2022-11-01T12:38:45.797Z,16.02
2022-11-01T12:41:29.707Z,15.82
2022-11-01T12:44:18.708Z,15.50
2022-11-01T12:46:59.078Z,16.18
2022-11-01T12:49:34.226Z,16.31
2022-11-01T12:52:08.511Z,16.06
2022-11-01T12:54:39.025Z,16.28
2022-11-01T12:57:13.251Z,16.25
2022-11-01T12:59:40.824Z,16.45
2022-11-01T13:02:08.090Z,16.02
2022-11-01T13:04:37.366Z,16.25
2022-11-01T13:07:21.117Z,16.29
2022-11-01T13:10:05.235Z,15.89
2022-11-01T13:12:51.074Z,16.06
2022-11-01T13:15:45.528Z,15.95
2022-11-01T13:18:25.748Z,16.11
2022-11-01T13:20:58.140Z,16.08
2022-11-01T13:23:37.660Z,16.21
2022-11-01T13:26:24.633Z,16.28
2022-11-01T13:29:27.046Z,15.88
2022-11-01T13:32:07.518Z,15.81
2022-11-01T13:34:56.619Z,15.46
2022-11-01T13:37:32.760Z,15.90
2022-11-01T13:40:20.453Z,16.10
2022-11-01T13:43:04.262Z,15.97
2022-11-01T13:45:53.805Z,15.86
2022-11-01T13:48:36.084Z,15.99
2022-11-01T13:51:15.846Z,15.96
2022-11-01T13:53:49.893Z,15.84
2022-11-01T13:56:30.865Z,16.02
2022-11-01T13:58:58.836Z,15.53
2022-11-01T14:01:36.844Z,15.81
2022-11-01T14:04:13.682Z,15.88
2022-11-01T14:06:41.866Z,16.04
2022-11-01T14:09:21.171Z,15.97
2022-11-01T14:11:48.963Z,15.37
2022-11-01T14:14:31.776Z,15.52
2022-11-01T14:17:20.698Z,15.42
2022-11-01T14:20:10.752Z,15.60
2022-11-01T14:22:39.934Z,15.36
2022-11-01T14:25:13.590Z,15.41
2022-11-01T14:27:50.437Z,15.61
2022-11-01T14:30:21.135Z,15.55
2022-11-01T14:32:53.963Z,15.26
2022-11-01T14:35:23.113Z,14.93
2022-11-01T14:37:52.582Z,15.18
2022-11-01T14:40:34.278Z,15.31
2022-11-01T14:43:30.931Z,15.43
2022-11-01T14:46:00.855Z,15.29
2022-11-01T14:48:29.898Z,15.55
2022-11-01T14:51:05.110Z,15.37
2022-11-01T14:53:34.008Z,15.08
2022-11-01T14:56:38.391Z,15.14
2022-11-01T14:59:19.741Z,15.06
2022-11-01T15:01:48.752Z,14.27
2022-11-01T15:04:27.544Z,14.35
2022-11-01T15:06:55.209Z,14.44
2022-11-01T15:09:24.160Z,14.06
2022-11-01T15:11:53.062Z,14.27
2022-11-01T15:14:27.468Z,13.49
2022-11-01T15:16:55.053Z,13.05
2022-11-01T15:19:28.445Z,13.00
2022-11-01T15:22:01.018Z,13.57
2022-11-01T15:24:28.774Z,13.45
2022-11-01T15:26:56.495Z,13.25
2022-11-01T15:29:24.864Z,13.13
2022-11-01T15:31:59.072Z,12.99
2022-11-01T15:34:28.173Z,13.50
2022-11-01T15:36:55.767Z,13.72
2022-11-01T15:39:28.995Z,14.03
2022-11-01T15:41:57.751Z,14.00
2022-11-01T15:44:26.511Z,14.40
2022-11-01T15:46:55.742Z,14.52
2022-11-01T15:49:28.767Z,14.32
2022-11-01T15:51:58.315Z,14.85
2022-11-01T15:54:47.346Z,14.71
2022-11-01T15:57:38.752Z,14.55
2022-11-01T16:00:27.406Z,14.66
2022-11-01T16:03:18.936Z,14.70
2022-11-01T16:05:59.809Z,14.94
2022-11-01T16:08:30.241Z,14.92
2022-11-01T16:10:57.563Z,14.86
2022-11-01T16:13:24.896Z,14.88
2022-11-01T16:16:05.771Z,15.08
2022-11-01T16:18:34.245Z,14.80
2022-11-01T16:21:03.534Z,14.74
2022-11-01T16:23:32.259Z,14.88
2022-11-01T16:26:01.454Z,14.91
2022-11-01T16:28:31.612Z,14.97
2022-11-01T16:30:58.979Z,15.21
2022-11-01T16:33:38.006Z,15.22
2022-11-01T16:36:20.924Z,15.11
2022-11-01T16:38:54.643Z,15.22
2022-11-01T16:41:24.139Z,15.03
2022-11-01T16:43:55.607Z,15.24
2022-11-01T16:46:24.375Z,15.30
2022-11-01T16:49:05.721Z,15.18
2022-11-01T16:51:33.505Z,15.28
2022-11-01T16:54:01.256Z,15.04
2022-11-01T16:56:36.592Z,15.06
2022-11-01T16:59:14.686Z,15.39
2022-11-01T17:01:42.097Z,15.35
2022-11-01T17:04:10.314Z,15.06
2022-11-01T17:06:39.055Z,14.85
2022-11-01T17:09:11.932Z,15.01
2022-11-01T17:11:39.985Z,15.25
2022-11-01T17:14:07.347Z,14.98
2022-11-01T17:16:34.681Z,14.84
2022-11-01T17:19:02.304Z,14.53
2022-11-01T17:21:30.434Z,14.75
2022-11-01T17:23:57.781Z,15.00
2022-11-01T17:26:26.518Z,14.35
2022-11-01T17:28:53.897Z,14.72
2022-11-01T17:31:21.247Z,15.02
2022-11-01T17:33:48.847Z,14.91
2022-11-01T17:36:16.406Z,14.94
2022-11-01T17:38:44.891Z,14.87
2022-11-01T17:41:16.686Z,14.75
2022-11-01T17:43:44.119Z,15.00
2022-11-01T17:46:17.490Z,15.14
2022-11-01T17:48:44.856Z,15.30
2022-11-01T17:51:12.678Z,14.92
2022-11-01T17:53:42.117Z,14.88
2022-11-01T17:56:09.638Z,15.04
2022-11-01T17:58:37.285Z,15.29
2022-11-01T18:01:04.929Z,14.89
2022-11-01T18:03:32.585Z,14.92
2022-11-01T18:05:59.940Z,15.08
2022-11-01T18:08:27.974Z,15.25
2022-11-01T18:11:33.251Z,15.20
2022-11-01T18:14:20.604Z,15.27
2022-11-01T18:17:03.157Z,15.04
2022-11-01T18:19:34.518Z,14.68
2022-11-01T18:22:29.705Z,14.89
2022-11-01T18:25:03.423Z,15.02
2022-11-01T18:27:36.103Z,15.20
2022-11-01T18:30:17.606Z,15.26
2022-11-01T18:32:46.869Z,14.88
2022-11-01T18:35:33.205Z,14.79
2022-11-01T18:38:32.437Z,15.07
2022-11-01T18:41:00.977Z,15.08
2022-11-01T18:43:39.085Z,15.14
2022-11-01T18:46:26.918Z,14.88
2022-11-01T18:48:59.432Z,14.72
2022-11-01T18:51:33.391Z,14.81
2022-11-01T18:54:10.161Z,14.55
2022-11-01T18:56:40.017Z,14.90
2022-11-01T18:59:15.855Z,13.68
2022-11-01T19:01:43.993Z,14.39
2022-11-01T19:04:21.553Z,14.40
2022-11-01T19:06:48.913Z,14.28
2022-11-01T19:09:21.640Z,14.56
2022-11-01T19:11:53.786Z,14.57
2022-11-01T19:14:21.541Z,14.75
2022-11-01T19:16:49.412Z,13.53
2022-11-01T19:19:17.932Z,13.64
2022-11-01T19:21:45.537Z,13.09
2022-11-01T19:24:31.605Z,12.80
2022-11-01T19:26:59.055Z,12.40
2022-11-01T19:29:26.982Z,12.88
2022-11-01T19:31:55.540Z,13.64
2022-11-01T19:34:24.511Z,12.90
2022-11-01T19:36:52.707Z,12.94
2022-11-01T19:39:24.004Z,12.99
2022-11-01T19:41:52.744Z,13.33
2022-11-01T19:44:24.421Z,13.71
2022-11-01T19:46:59.499Z,13.20
2022-11-01T19:49:30.086Z,13.23
2022-11-01T19:52:03.256Z,12.55
2022-11-01T19:54:31.045Z,12.69
2022-11-01T19:56:59.734Z,12.14
2022-11-01T19:59:27.078Z,12.32
2022-11-01T20:01:54.549Z,12.24
2022-11-01T20:04:28.186Z,12.83
2022-11-01T20:07:01.800Z,12.58
2022-11-01T20:09:35.794Z,12.59
2022-11-01T20:12:03.250Z,12.14
2022-11-01T20:14:30.900Z,12.23
2022-11-01T20:16:58.256Z,12.05
2022-11-01T20:19:25.614Z,12.32
2022-11-01T20:21:53.226Z,11.96
2022-11-01T20:24:20.555Z,12.16
2022-11-01T20:26:47.872Z,11.79
2022-11-01T20:29:15.477Z,11.44
2022-11-01T20:31:42.870Z,12.17
2022-11-01T20:34:10.225Z,12.52
2022-11-01T20:36:38.678Z,11.73
2022-11-01T20:39:08.128Z,12.22
2022-11-01T20:41:38.277Z,11.78
2022-11-01T20:44:05.674Z,11.86
2022-11-01T20:46:32.978Z,12.04
2022-11-01T20:49:00.576Z,11.49
2022-11-01T20:51:27.953Z,11.56
2022-11-01T20:53:55.618Z,11.71
2022-11-01T20:56:23.241Z,12.17
2022-11-01T20:58:50.691Z,11.82
2022-11-01T21:01:19.188Z,11.58
2022-11-01T21:03:46.923Z,11.83
2022-11-01T21:06:16.708Z,11.59
2022-11-01T21:08:47.486Z,11.81
2022-11-01T21:11:43.773Z,11.74
2022-11-01T21:14:19.483Z,11.67
2022-11-01T21:16:48.203Z,11.73
2022-11-01T21:19:25.061Z,12.11
2022-11-01T21:21:58.710Z,11.97
2022-11-01T21:24:27.912Z,12.12
2022-11-01T21:27:22.741Z,11.53
2022-11-01T21:29:50.489Z,11.86
2022-11-01T21:32:42.526Z,11.73
2022-11-01T21:35:35.985Z,12.24
2022-11-01T21:38:03.754Z,12.25
2022-11-01T21:40:36.713Z,11.77
2022-11-01T21:43:04.317Z,11.92
2022-11-01T21:45:32.098Z,12.64
2022-11-01T21:48:13.986Z,12.61
2022-11-01T21:50:41.579Z,12.39
2022-11-01T21:53:08.919Z,11.95
2022-11-01T21:55:36.261Z,11.89
2022-11-01T21:58:03.839Z,11.51
2022-11-01T22:00:31.154Z,11.46
2022-11-01T22:02:58.775Z,11.85
2022-11-01T22:05:26.132Z,11.43
2022-11-01T22:07:53.430Z,11.62
2022-11-01T22:10:21.019Z,11.48
2022-11-01T22:12:48.347Z,11.46
2022-11-01T22:15:15.667Z,12.22
2022-11-01T22:17:43.250Z,11.84
2022-11-01T22:20:10.810Z,11.62
2022-11-01T22:22:38.131Z,11.89
2022-11-01T22:25:06.614Z,11.68
2022-11-01T22:27:34.032Z,11.90
2022-11-01T22:30:01.363Z,11.30
2022-11-01T22:32:29.411Z,11.54
2022-11-01T22:34:56.727Z,11.57
2022-11-01T22:37:24.208Z,11.30
2022-11-01T22:39:53.120Z,11.97
2022-11-01T22:42:21.898Z,12.02
2022-11-01T22:44:49.234Z,12.17
2022-11-01T22:47:27.319Z,11.67
2022-11-01T22:49:55.843Z,12.25
2022-11-01T22:52:45.741Z,11.75
2022-11-01T22:55:13.069Z,11.97
2022-11-01T22:58:03.941Z,12.12
2022-11-01T23:00:41.249Z,12.03
2022-11-01T23:03:41.371Z,12.14
2022-11-01T23:06:21.829Z,12.23
2022-11-01T23:08:49.403Z,12.05
2022-11-01T23:11:37.414Z,12.50
2022-11-01T23:14:31.222Z,12.02
2022-11-01T23:16:58.533Z,12.05
2022-11-01T23:19:26.167Z,12.10
2022-11-01T23:21:53.551Z,12.47
2022-11-01T23:24:20.923Z,12.48
2022-11-01T23:26:48.592Z,12.63
2022-11-01T23:29:15.951Z,12.41
2022-11-01T23:31:43.243Z,12.60
2022-11-01T23:34:11.769Z,12.39
2022-11-01T23:36:39.131Z,12.34
2022-11-01T23:39:11.680Z,12.12
2022-11-01T23:42:05.743Z,12.46
2022-11-01T23:44:37.062Z,12.77
2022-11-01T23:47:14.446Z,12.30
2022-11-01T23:49:41.804Z,11.99
2022-11-01T23:52:33.362Z,12.55
2022-11-01T23:55:00.804Z,12.45
2022-11-01T23:57:28.371Z,12.66
2022-11-01T23:59:55.662Z,12.64
